sensor_id;sensor_type;location;lat;lon;timestamp;P1;durP1;ratioP1;P2;durP2;ratioP2
42146;SDS011;27815;43.410;11.852;2024-02-04T00:03:52;6.32;;;2.63;;
42146;SDS011;27815;43.410;11.852;2024-02-04T00:07:54;8.52;;;3.13;;
42146;SDS011;27815;43.410;11.852;2024-02-04T00:11:57;6.82;;;3.40;;
42146;SDS011;27815;43.410;11.852;2024-02-04T00:16:03;8.65;;;2.95;;
42146;SDS011;27815;43.410;11.852;2024-02-04T00:20:07;8.13;;;2.90;;
42146;SDS011;27815;43.410;11.852;2024-02-04T00:24:10;5.80;;;3.10;;
42146;SDS011;27815;43.410;11.852;2024-02-04T00:28:13;7.82;;;2.78;;
42146;SDS011;27815;43.410;11.852;2024-02-04T00:32:16;8.50;;;4.13;;
42146;SDS011;27815;43.410;11.852;2024-02-04T00:36:19;6.93;;;3.00;;
42146;SDS011;27815;43.410;11.852;2024-02-04T00:40:24;8.45;;;3.38;;
42146;SDS011;27815;43.410;11.852;2024-02-04T00:44:28;12.40;;;5.65;;
42146;SDS011;27815;43.410;11.852;2024-02-04T00:48:31;7.53;;;2.90;;
42146;SDS011;27815;43.410;11.852;2024-02-04T00:52:34;6.20;;;2.90;;
42146;SDS011;27815;43.410;11.852;2024-02-04T00:56:37;6.60;;;2.83;;
42146;SDS011;27815;43.410;11.852;2024-02-04T01:00:41;4.75;;;2.47;;
42146;SDS011;27815;43.410;11.852;2024-02-04T01:04:44;6.22;;;2.70;;
42146;SDS011;27815;43.410;11.852;2024-02-04T01:08:47;6.40;;;2.55;;
42146;SDS011;27815;43.410;11.852;2024-02-04T01:12:50;8.05;;;2.83;;
42146;SDS011;27815;43.410;11.852;2024-02-04T01:16:53;6.97;;;2.20;;
42146;SDS011;27815;43.410;11.852;2024-02-04T01:20:56;6.70;;;2.40;;
42146;SDS011;27815;43.410;11.852;2024-02-04T01:24:59;6.10;;;2.88;;
42146;SDS011;27815;43.410;11.852;2024-02-04T01:29:02;5.85;;;2.33;;
42146;SDS011;27815;43.410;11.852;2024-02-04T01:33:06;6.53;;;2.53;;
42146;SDS011;27815;43.410;11.852;2024-02-04T01:37:09;5.57;;;2.45;;
42146;SDS011;27815;43.410;11.852;2024-02-04T01:41:12;7.43;;;3.55;;
42146;SDS011;27815;43.410;11.852;2024-02-04T01:45:15;8.70;;;3.15;;
42146;SDS011;27815;43.410;11.852;2024-02-04T01:49:18;7.07;;;2.88;;
42146;SDS011;27815;43.410;11.852;2024-02-04T01:53:22;6.28;;;2.70;;
42146;SDS011;27815;43.410;11.852;2024-02-04T01:57:26;8.73;;;2.80;;
42146;SDS011;27815;43.410;11.852;2024-02-04T02:01:29;5.68;;;2.20;;
42146;SDS011;27815;43.410;11.852;2024-02-04T02:05:33;5.22;;;2.00;;
42146;SDS011;27815;43.410;11.852;2024-02-04T02:09:36;5.70;;;2.50;;
42146;SDS011;27815;43.410;11.852;2024-02-04T02:13:39;11.15;;;5.70;;
42146;SDS011;27815;43.410;11.852;2024-02-04T02:17:59;12.40;;;6.60;;
42146;SDS011;27815;43.410;11.852;2024-02-04T02:26:28;9.75;;;5.10;;
42146;SDS011;27815;43.410;11.852;2024-02-04T02:30:36;9.95;;;4.30;;
42146;SDS011;27815;43.410;11.852;2024-02-04T02:34:39;11.32;;;6.32;;
42146;SDS011;27815;43.410;11.852;2024-02-04T02:38:56;7.75;;;4.40;;
42146;SDS011;27815;43.410;11.852;2024-02-04T02:43:03;6.97;;;3.45;;
42146;SDS011;27815;43.410;11.852;2024-02-04T02:47:07;11.57;;;3.25;;
42146;SDS011;27815;43.410;11.852;2024-02-04T02:51:12;9.23;;;3.20;;
42146;SDS011;27815;43.410;11.852;2024-02-04T02:55:15;10.88;;;6.38;;
42146;SDS011;27815;43.410;11.852;2024-02-04T02:59:18;10.70;;;5.82;;
42146;SDS011;27815;43.410;11.852;2024-02-04T03:03:21;9.02;;;4.07;;
42146;SDS011;27815;43.410;11.852;2024-02-04T03:07:24;8.27;;;3.80;;
42146;SDS011;27815;43.410;11.852;2024-02-04T03:11:27;7.82;;;2.90;;
42146;SDS011;27815;43.410;11.852;2024-02-04T03:15:30;7.28;;;2.40;;
42146;SDS011;27815;43.410;11.852;2024-02-04T03:19:33;12.35;;;2.63;;
42146;SDS011;27815;43.410;11.852;2024-02-04T03:23:36;3.53;;;2.00;;
42146;SDS011;27815;43.410;11.852;2024-02-04T03:27:40;9.02;;;2.30;;
42146;SDS011;27815;43.410;11.852;2024-02-04T03:31:43;8.57;;;2.45;;
42146;SDS011;27815;43.410;11.852;2024-02-04T03:35:46;13.50;;;7.45;;
42146;SDS011;27815;43.410;11.852;2024-02-04T03:39:49;8.52;;;3.35;;
42146;SDS011;27815;43.410;11.852;2024-02-04T03:43:52;7.28;;;2.42;;
42146;SDS011;27815;43.410;11.852;2024-02-04T03:47:55;12.10;;;6.80;;
42146;SDS011;27815;43.410;11.852;2024-02-04T03:51:58;11.23;;;6.82;;
42146;SDS011;27815;43.410;11.852;2024-02-04T03:56:01;13.35;;;6.80;;
42146;SDS011;27815;43.410;11.852;2024-02-04T04:00:05;13.70;;;8.15;;
42146;SDS011;27815;43.410;11.852;2024-02-04T04:04:12;19.17;;;11.75;;
42146;SDS011;27815;43.410;11.852;2024-02-04T04:08:15;16.35;;;9.65;;
42146;SDS011;27815;43.410;11.852;2024-02-04T04:12:20;16.10;;;9.85;;
42146;SDS011;27815;43.410;11.852;2024-02-04T04:16:23;13.00;;;7.93;;
42146;SDS011;27815;43.410;11.852;2024-02-04T04:20:26;13.80;;;5.47;;
42146;SDS011;27815;43.410;11.852;2024-02-04T04:24:29;16.50;;;8.77;;
42146;SDS011;27815;43.410;11.852;2024-02-04T04:28:31;18.70;;;11.82;;
42146;SDS011;27815;43.410;11.852;2024-02-04T04:32:34;14.10;;;9.80;;
42146;SDS011;27815;43.410;11.852;2024-02-04T04:36:38;15.68;;;9.80;;
42146;SDS011;27815;43.410;11.852;2024-02-04T04:40:41;15.68;;;9.27;;
42146;SDS011;27815;43.410;11.852;2024-02-04T04:44:44;16.65;;;12.00;;
42146;SDS011;27815;43.410;11.852;2024-02-04T04:48:47;20.50;;;12.60;;
42146;SDS011;27815;43.410;11.852;2024-02-04T04:52:50;19.00;;;11.98;;
42146;SDS011;27815;43.410;11.852;2024-02-04T04:56:53;16.23;;;10.57;;
42146;SDS011;27815;43.410;11.852;2024-02-04T05:00:56;15.95;;;9.95;;
42146;SDS011;27815;43.410;11.852;2024-02-04T05:04:59;17.90;;;10.10;;
42146;SDS011;27815;43.410;11.852;2024-02-04T05:09:02;19.13;;;10.35;;
42146;SDS011;27815;43.410;11.852;2024-02-04T05:13:05;15.80;;;11.02;;
42146;SDS011;27815;43.410;11.852;2024-02-04T05:17:09;15.18;;;9.00;;
42146;SDS011;27815;43.410;11.852;2024-02-04T05:21:12;16.92;;;9.88;;
42146;SDS011;27815;43.410;11.852;2024-02-04T05:25:15;17.00;;;9.95;;
42146;SDS011;27815;43.410;11.852;2024-02-04T05:29:18;15.20;;;10.50;;
42146;SDS011;27815;43.410;11.852;2024-02-04T05:33:21;18.63;;;10.80;;
42146;SDS011;27815;43.410;11.852;2024-02-04T05:37:23;16.95;;;11.07;;
42146;SDS011;27815;43.410;11.852;2024-02-04T05:41:26;17.85;;;10.38;;
42146;SDS011;27815;43.410;11.852;2024-02-04T05:45:29;23.35;;;11.88;;
42146;SDS011;27815;43.410;11.852;2024-02-04T05:49:33;18.30;;;11.57;;
42146;SDS011;27815;43.410;11.852;2024-02-04T05:53:36;18.52;;;11.45;;
42146;SDS011;27815;43.410;11.852;2024-02-04T05:57:38;16.27;;;10.85;;
42146;SDS011;27815;43.410;11.852;2024-02-04T06:01:41;15.85;;;10.30;;
42146;SDS011;27815;43.410;11.852;2024-02-04T06:05:45;14.93;;;8.77;;
42146;SDS011;27815;43.410;11.852;2024-02-04T06:09:48;18.15;;;10.60;;
42146;SDS011;27815;43.410;11.852;2024-02-04T06:13:51;19.73;;;12.27;;
42146;SDS011;27815;43.410;11.852;2024-02-04T06:17:53;18.75;;;11.40;;
42146;SDS011;27815;43.410;11.852;2024-02-04T06:21:56;20.13;;;11.80;;
42146;SDS011;27815;43.410;11.852;2024-02-04T06:26:02;22.98;;;13.32;;
42146;SDS011;27815;43.410;11.852;2024-02-04T06:34:11;19.80;;;12.10;;
42146;SDS011;27815;43.410;11.852;2024-02-04T06:38:15;25.05;;;12.45;;
42146;SDS011;27815;43.410;11.852;2024-02-04T06:42:18;17.65;;;11.75;;
42146;SDS011;27815;43.410;11.852;2024-02-04T06:46:25;22.15;;;13.38;;
42146;SDS011;27815;43.410;11.852;2024-02-04T06:50:28;20.73;;;13.18;;
42146;SDS011;27815;43.410;11.852;2024-02-04T06:54:31;21.05;;;13.30;;
42146;SDS011;27815;43.410;11.852;2024-02-04T06:58:36;19.83;;;12.52;;
42146;SDS011;27815;43.410;11.852;2024-02-04T07:02:43;22.98;;;12.98;;
42146;SDS011;27815;43.410;11.852;2024-02-04T07:06:47;22.05;;;12.13;;
42146;SDS011;27815;43.410;11.852;2024-02-04T07:10:50;19.00;;;12.10;;
42146;SDS011;27815;43.410;11.852;2024-02-04T07:14:53;20.23;;;10.70;;
42146;SDS011;27815;43.410;11.852;2024-02-04T07:18:57;18.92;;;11.60;;
42146;SDS011;27815;43.410;11.852;2024-02-04T07:23:00;18.02;;;11.00;;
42146;SDS011;27815;43.410;11.852;2024-02-04T07:27:03;17.05;;;11.02;;
42146;SDS011;27815;43.410;11.852;2024-02-04T07:31:06;17.52;;;10.02;;
42146;SDS011;27815;43.410;11.852;2024-02-04T07:35:09;17.63;;;10.75;;
42146;SDS011;27815;43.410;11.852;2024-02-04T07:39:12;19.33;;;10.80;;
42146;SDS011;27815;43.410;11.852;2024-02-04T07:43:15;18.88;;;10.73;;
42146;SDS011;27815;43.410;11.852;2024-02-04T07:47:18;17.55;;;10.85;;
42146;SDS011;27815;43.410;11.852;2024-02-04T07:51:23;16.67;;;9.30;;
42146;SDS011;27815;43.410;11.852;2024-02-04T07:55:26;16.77;;;10.73;;
42146;SDS011;27815;43.410;11.852;2024-02-04T07:59:29;23.33;;;10.38;;
42146;SDS011;27815;43.410;11.852;2024-02-04T08:03:32;19.48;;;10.95;;
42146;SDS011;27815;43.410;11.852;2024-02-04T08:07:35;21.23;;;11.95;;
42146;SDS011;27815;43.410;11.852;2024-02-04T08:11:38;20.38;;;12.90;;
42146;SDS011;27815;43.410;11.852;2024-02-04T08:15:41;20.10;;;11.40;;
42146;SDS011;27815;43.410;11.852;2024-02-04T08:19:43;19.05;;;10.60;;
42146;SDS011;27815;43.410;11.852;2024-02-04T08:23:46;15.10;;;10.65;;
42146;SDS011;27815;43.410;11.852;2024-02-04T08:27:49;19.42;;;11.20;;
42146;SDS011;27815;43.410;11.852;2024-02-04T08:31:52;18.17;;;10.50;;
42146;SDS011;27815;43.410;11.852;2024-02-04T08:35:55;18.10;;;10.73;;
42146;SDS011;27815;43.410;11.852;2024-02-04T08:39:58;15.80;;;10.70;;
42146;SDS011;27815;43.410;11.852;2024-02-04T08:44:00;18.83;;;12.65;;
42146;SDS011;27815;43.410;11.852;2024-02-04T08:48:05;22.30;;;13.60;;
42146;SDS011;27815;43.410;11.852;2024-02-04T08:52:08;21.27;;;13.65;;
42146;SDS011;27815;43.410;11.852;2024-02-04T08:56:11;18.88;;;12.18;;
42146;SDS011;27815;43.410;11.852;2024-02-04T09:00:15;19.55;;;12.82;;
42146;SDS011;27815;43.410;11.852;2024-02-04T09:04:18;19.17;;;13.25;;
42146;SDS011;27815;43.410;11.852;2024-02-04T09:08:21;21.08;;;12.80;;
42146;SDS011;27815;43.410;11.852;2024-02-04T09:12:24;23.00;;;14.07;;
42146;SDS011;27815;43.410;11.852;2024-02-04T09:16:27;20.45;;;13.35;;
42146;SDS011;27815;43.410;11.852;2024-02-04T09:20:32;19.25;;;12.57;;
42146;SDS011;27815;43.410;11.852;2024-02-04T09:24:36;23.35;;;13.15;;
42146;SDS011;27815;43.410;11.852;2024-02-04T09:28:39;22.30;;;14.20;;
42146;SDS011;27815;43.410;11.852;2024-02-04T09:32:43;20.15;;;12.07;;
42146;SDS011;27815;43.410;11.852;2024-02-04T09:36:46;21.48;;;12.65;;
42146;SDS011;27815;43.410;11.852;2024-02-04T09:40:49;22.42;;;12.48;;
42146;SDS011;27815;43.410;11.852;2024-02-04T09:44:52;16.80;;;11.93;;
42146;SDS011;27815;43.410;11.852;2024-02-04T09:48:55;14.82;;;10.07;;
42146;SDS011;27815;43.410;11.852;2024-02-04T09:52:59;16.67;;;10.35;;
42146;SDS011;27815;43.410;11.852;2024-02-04T09:57:03;18.23;;;11.15;;
42146;SDS011;27815;43.410;11.852;2024-02-04T10:01:06;18.80;;;12.15;;
42146;SDS011;27815;43.410;11.852;2024-02-04T10:05:12;21.40;;;12.25;;
42146;SDS011;27815;43.410;11.852;2024-02-04T10:09:16;19.00;;;12.30;;
42146;SDS011;27815;43.410;11.852;2024-02-04T10:13:19;19.48;;;10.43;;
42146;SDS011;27815;43.410;11.852;2024-02-04T10:17:23;21.80;;;11.85;;
42146;SDS011;27815;43.410;11.852;2024-02-04T10:21:25;22.30;;;13.10;;
42146;SDS011;27815;43.410;11.852;2024-02-04T10:25:28;18.25;;;12.25;;
42146;SDS011;27815;43.410;11.852;2024-02-04T10:29:31;18.17;;;12.10;;
42146;SDS011;27815;43.410;11.852;2024-02-04T10:33:34;15.10;;;11.05;;
42146;SDS011;27815;43.410;11.852;2024-02-04T10:37:38;18.42;;;11.25;;
42146;SDS011;27815;43.410;11.852;2024-02-04T10:41:43;15.90;;;9.82;;
42146;SDS011;27815;43.410;11.852;2024-02-04T10:45:56;19.08;;;10.13;;
42146;SDS011;27815;43.410;11.852;2024-02-04T10:50:02;15.32;;;10.25;;
42146;SDS011;27815;43.410;11.852;2024-02-04T10:54:06;19.58;;;10.02;;
42146;SDS011;27815;43.410;11.852;2024-02-04T10:58:11;22.42;;;11.57;;
42146;SDS011;27815;43.410;11.852;2024-02-04T11:02:15;20.17;;;10.95;;
42146;SDS011;27815;43.410;11.852;2024-02-04T11:06:20;15.20;;;8.43;;
42146;SDS011;27815;43.410;11.852;2024-02-04T11:10:24;14.07;;;9.20;;
42146;SDS011;27815;43.410;11.852;2024-02-04T11:14:31;15.10;;;10.60;;
42146;SDS011;27815;43.410;11.852;2024-02-04T11:18:39;14.60;;;9.13;;
42146;SDS011;27815;43.410;11.852;2024-02-04T11:23:20;18.08;;;9.25;;
42146;SDS011;27815;43.410;11.852;2024-02-04T11:27:28;14.73;;;8.73;;
42146;SDS011;27815;43.410;11.852;2024-02-04T11:31:32;15.48;;;8.35;;
42146;SDS011;27815;43.410;11.852;2024-02-04T11:35:35;12.48;;;8.57;;
42146;SDS011;27815;43.410;11.852;2024-02-04T11:39:47;14.88;;;10.05;;
42146;SDS011;27815;43.410;11.852;2024-02-04T11:43:57;18.85;;;9.73;;
42146;SDS011;27815;43.410;11.852;2024-02-04T11:48:03;17.98;;;11.10;;
42146;SDS011;27815;43.410;11.852;2024-02-04T11:52:08;16.90;;;9.77;;
42146;SDS011;27815;43.410;11.852;2024-02-04T11:56:21;24.05;;;12.45;;
42146;SDS011;27815;43.410;11.852;2024-02-04T12:00:26;23.48;;;11.77;;
42146;SDS011;27815;43.410;11.852;2024-02-04T12:04:29;20.67;;;9.07;;
42146;SDS011;27815;43.410;11.852;2024-02-04T12:08:33;16.33;;;7.88;;
42146;SDS011;27815;43.410;11.852;2024-02-04T12:12:36;14.07;;;7.13;;
42146;SDS011;27815;43.410;11.852;2024-02-04T12:16:40;18.42;;;6.15;;
42146;SDS011;27815;43.410;11.852;2024-02-04T12:20:43;15.77;;;5.93;;
42146;SDS011;27815;43.410;11.852;2024-02-04T12:24:46;13.98;;;5.70;;
42146;SDS011;27815;43.410;11.852;2024-02-04T12:28:49;18.85;;;6.70;;
42146;SDS011;27815;43.410;11.852;2024-02-04T12:32:56;13.52;;;6.30;;
42146;SDS011;27815;43.410;11.852;2024-02-04T12:37:01;12.55;;;6.45;;
42146;SDS011;27815;43.410;11.852;2024-02-04T12:41:04;10.50;;;5.97;;
42146;SDS011;27815;43.410;11.852;2024-02-04T12:45:07;15.55;;;5.93;;
42146;SDS011;27815;43.410;11.852;2024-02-04T12:49:11;13.10;;;5.95;;
42146;SDS011;27815;43.410;11.852;2024-02-04T12:53:26;12.60;;;5.78;;
42146;SDS011;27815;43.410;11.852;2024-02-04T12:57:29;10.20;;;6.03;;
42146;SDS011;27815;43.410;11.852;2024-02-04T13:01:32;9.05;;;5.70;;
42146;SDS011;27815;43.410;11.852;2024-02-04T13:05:35;12.02;;;5.68;;
42146;SDS011;27815;43.410;11.852;2024-02-04T13:09:39;14.75;;;7.05;;
42146;SDS011;27815;43.410;11.852;2024-02-04T13:13:43;14.60;;;6.90;;
42146;SDS011;27815;43.410;11.852;2024-02-04T13:17:46;11.35;;;5.10;;
42146;SDS011;27815;43.410;11.852;2024-02-04T13:21:49;12.02;;;5.30;;
42146;SDS011;27815;43.410;11.852;2024-02-04T13:25:52;13.02;;;5.88;;
42146;SDS011;27815;43.410;11.852;2024-02-04T13:29:55;12.10;;;5.32;;
42146;SDS011;27815;43.410;11.852;2024-02-04T13:33:58;13.10;;;5.55;;
42146;SDS011;27815;43.410;11.852;2024-02-04T13:38:01;11.63;;;5.47;;
42146;SDS011;27815;43.410;11.852;2024-02-04T13:42:04;9.55;;;5.03;;
42146;SDS011;27815;43.410;11.852;2024-02-04T13:46:08;12.73;;;5.03;;
42146;SDS011;27815;43.410;11.852;2024-02-04T13:50:11;9.40;;;5.30;;
42146;SDS011;27815;43.410;11.852;2024-02-04T13:54:14;9.82;;;5.10;;
42146;SDS011;27815;43.410;11.852;2024-02-04T13:58:19;10.57;;;5.32;;
42146;SDS011;27815;43.410;11.852;2024-02-04T14:02:25;10.77;;;5.05;;
42146;SDS011;27815;43.410;11.852;2024-02-04T14:06:31;11.10;;;5.65;;
42146;SDS011;27815;43.410;11.852;2024-02-04T14:10:34;10.57;;;5.90;;
42146;SDS011;27815;43.410;11.852;2024-02-04T14:14:37;11.95;;;6.13;;
42146;SDS011;27815;43.410;11.852;2024-02-04T14:18:41;15.43;;;7.88;;
42146;SDS011;27815;43.410;11.852;2024-02-04T14:22:48;13.60;;;7.10;;
42146;SDS011;27815;43.410;11.852;2024-02-04T14:26:56;13.80;;;5.18;;
42146;SDS011;27815;43.410;11.852;2024-02-04T14:30:59;10.85;;;5.22;;
42146;SDS011;27815;43.410;11.852;2024-02-04T14:35:02;15.88;;;5.20;;
42146;SDS011;27815;43.410;11.852;2024-02-04T14:39:07;10.90;;;6.18;;
42146;SDS011;27815;43.410;11.852;2024-02-04T14:43:10;11.23;;;5.30;;
42146;SDS011;27815;43.410;11.852;2024-02-04T14:47:14;11.10;;;4.93;;
42146;SDS011;27815;43.410;11.852;2024-02-04T14:51:17;11.73;;;4.88;;
42146;SDS011;27815;43.410;11.852;2024-02-04T14:55:20;10.68;;;4.72;;
42146;SDS011;27815;43.410;11.852;2024-02-04T14:59:24;9.45;;;4.68;;
42146;SDS011;27815;43.410;11.852;2024-02-04T15:03:26;12.77;;;5.35;;
42146;SDS011;27815;43.410;11.852;2024-02-04T15:07:29;15.27;;;6.13;;
42146;SDS011;27815;43.410;11.852;2024-02-04T15:11:32;19.17;;;8.07;;
42146;SDS011;27815;43.410;11.852;2024-02-04T15:15:36;12.07;;;6.18;;
42146;SDS011;27815;43.410;11.852;2024-02-04T15:19:40;20.50;;;7.30;;
42146;SDS011;27815;43.410;11.852;2024-02-04T15:23:44;11.68;;;5.93;;
42146;SDS011;27815;43.410;11.852;2024-02-04T15:27:47;11.25;;;5.82;;
42146;SDS011;27815;43.410;11.852;2024-02-04T15:31:55;9.10;;;5.68;;
42146;SDS011;27815;43.410;11.852;2024-02-04T15:35:58;12.38;;;5.93;;
42146;SDS011;27815;43.410;11.852;2024-02-04T15:40:01;11.73;;;5.22;;
42146;SDS011;27815;43.410;11.852;2024-02-04T15:44:04;14.60;;;6.00;;
42146;SDS011;27815;43.410;11.852;2024-02-04T15:48:09;13.13;;;5.82;;
42146;SDS011;27815;43.410;11.852;2024-02-04T15:52:16;10.43;;;6.35;;
42146;SDS011;27815;43.410;11.852;2024-02-04T15:56:19;12.02;;;6.28;;
42146;SDS011;27815;43.410;11.852;2024-02-04T16:00:26;14.80;;;5.72;;
42146;SDS011;27815;43.410;11.852;2024-02-04T16:04:30;12.52;;;5.85;;
42146;SDS011;27815;43.410;11.852;2024-02-04T16:08:34;14.77;;;7.28;;
42146;SDS011;27815;43.410;11.852;2024-02-04T16:12:37;9.32;;;5.32;;
42146;SDS011;27815;43.410;11.852;2024-02-04T16:16:42;9.70;;;5.75;;
42146;SDS011;27815;43.410;11.852;2024-02-04T16:20:47;14.20;;;5.97;;
42146;SDS011;27815;43.410;11.852;2024-02-04T16:24:50;10.30;;;5.70;;
42146;SDS011;27815;43.410;11.852;2024-02-04T16:28:53;11.63;;;6.68;;
42146;SDS011;27815;43.410;11.852;2024-02-04T16:32:56;10.00;;;5.72;;
42146;SDS011;27815;43.410;11.852;2024-02-04T16:37:00;19.08;;;9.68;;
42146;SDS011;27815;43.410;11.852;2024-02-04T16:41:04;18.20;;;11.05;;
42146;SDS011;27815;43.410;11.852;2024-02-04T16:45:12;18.23;;;9.82;;
42146;SDS011;27815;43.410;11.852;2024-02-04T16:49:14;24.15;;;12.18;;
42146;SDS011;27815;43.410;11.852;2024-02-04T16:53:22;18.60;;;10.93;;
42146;SDS011;27815;43.410;11.852;2024-02-04T16:57:26;17.83;;;11.00;;
42146;SDS011;27815;43.410;11.852;2024-02-04T17:01:30;14.88;;;8.20;;
42146;SDS011;27815;43.410;11.852;2024-02-04T17:05:33;15.30;;;7.80;;
42146;SDS011;27815;43.410;11.852;2024-02-04T17:09:56;23.63;;;13.73;;
42146;SDS011;27815;43.410;11.852;2024-02-04T17:13:59;23.33;;;12.23;;
42146;SDS011;27815;43.410;11.852;2024-02-04T17:18:03;10.88;;;6.45;;
42146;SDS011;27815;43.410;11.852;2024-02-04T17:22:17;11.75;;;6.72;;
42146;SDS011;27815;43.410;11.852;2024-02-04T17:26:22;16.17;;;7.38;;
42146;SDS011;27815;43.410;11.852;2024-02-04T17:30:33;14.60;;;7.20;;
42146;SDS011;27815;43.410;11.852;2024-02-04T17:34:37;13.10;;;8.57;;
42146;SDS011;27815;43.410;11.852;2024-02-04T17:38:41;18.10;;;9.43;;
42146;SDS011;27815;43.410;11.852;2024-02-04T17:42:44;16.38;;;8.30;;
42146;SDS011;27815;43.410;11.852;2024-02-04T17:46:47;11.30;;;7.82;;
42146;SDS011;27815;43.410;11.852;2024-02-04T17:50:50;13.80;;;8.27;;
42146;SDS011;27815;43.410;11.852;2024-02-04T17:55:08;24.33;;;12.00;;
42146;SDS011;27815;43.410;11.852;2024-02-04T17:59:11;13.48;;;7.85;;
42146;SDS011;27815;43.410;11.852;2024-02-04T18:03:14;15.35;;;8.63;;
42146;SDS011;27815;43.410;11.852;2024-02-04T18:07:17;14.35;;;8.88;;
42146;SDS011;27815;43.410;11.852;2024-02-04T18:11:22;16.50;;;9.65;;
42146;SDS011;27815;43.410;11.852;2024-02-04T18:15:27;15.93;;;8.55;;
42146;SDS011;27815;43.410;11.852;2024-02-04T18:19:30;22.55;;;11.70;;
42146;SDS011;27815;43.410;11.852;2024-02-04T18:23:34;14.23;;;8.52;;
42146;SDS011;27815;43.410;11.852;2024-02-04T18:27:37;15.13;;;7.68;;
42146;SDS011;27815;43.410;11.852;2024-02-04T18:31:44;15.73;;;9.27;;
42146;SDS011;27815;43.410;11.852;2024-02-04T18:35:49;12.80;;;7.88;;
42146;SDS011;27815;43.410;11.852;2024-02-04T18:39:52;12.90;;;7.97;;
42146;SDS011;27815;43.410;11.852;2024-02-04T18:43:55;18.42;;;8.73;;
42146;SDS011;27815;43.410;11.852;2024-02-04T18:47:59;18.00;;;9.77;;
42146;SDS011;27815;43.410;11.852;2024-02-04T18:52:02;12.35;;;7.45;;
42146;SDS011;27815;43.410;11.852;2024-02-04T18:56:07;12.57;;;8.38;;
42146;SDS011;27815;43.410;11.852;2024-02-04T19:00:18;15.57;;;8.80;;
42146;SDS011;27815;43.410;11.852;2024-02-04T19:04:21;16.33;;;9.90;;
42146;SDS011;27815;43.410;11.852;2024-02-04T19:08:29;15.68;;;8.38;;
42146;SDS011;27815;43.410;11.852;2024-02-04T19:12:32;15.52;;;8.77;;
42146;SDS011;27815;43.410;11.852;2024-02-04T19:16:35;15.35;;;8.93;;
42146;SDS011;27815;43.410;11.852;2024-02-04T19:20:38;18.58;;;9.55;;
42146;SDS011;27815;43.410;11.852;2024-02-04T19:24:42;22.52;;;11.18;;
42146;SDS011;27815;43.410;11.852;2024-02-04T19:28:45;18.73;;;9.93;;
42146;SDS011;27815;43.410;11.852;2024-02-04T19:32:49;27.92;;;12.32;;
42146;SDS011;27815;43.410;11.852;2024-02-04T19:36:53;21.90;;;10.77;;
42146;SDS011;27815;43.410;11.852;2024-02-04T19:40:56;16.92;;;8.80;;
42146;SDS011;27815;43.410;11.852;2024-02-04T19:44:59;13.93;;;7.68;;
42146;SDS011;27815;43.410;11.852;2024-02-04T19:49:02;13.77;;;7.32;;
42146;SDS011;27815;43.410;11.852;2024-02-04T19:53:05;17.58;;;8.93;;
42146;SDS011;27815;43.410;11.852;2024-02-04T19:57:08;11.88;;;7.32;;
42146;SDS011;27815;43.410;11.852;2024-02-04T20:01:11;19.38;;;10.82;;
42146;SDS011;27815;43.410;11.852;2024-02-04T20:05:14;14.00;;;7.47;;
42146;SDS011;27815;43.410;11.852;2024-02-04T20:09:19;11.63;;;7.00;;
42146;SDS011;27815;43.410;11.852;2024-02-04T20:13:22;10.65;;;6.05;;
42146;SDS011;27815;43.410;11.852;2024-02-04T20:17:29;11.55;;;6.53;;
42146;SDS011;27815;43.410;11.852;2024-02-04T20:21:36;16.80;;;8.30;;
42146;SDS011;27815;43.410;11.852;2024-02-04T20:25:44;16.23;;;7.82;;
42146;SDS011;27815;43.410;11.852;2024-02-04T20:29:47;19.52;;;9.20;;
42146;SDS011;27815;43.410;11.852;2024-02-04T20:33:55;10.50;;;6.80;;
42146;SDS011;27815;43.410;11.852;2024-02-04T20:37:59;11.02;;;6.30;;
42146;SDS011;27815;43.410;11.852;2024-02-04T20:42:03;12.80;;;5.72;;
42146;SDS011;27815;43.410;11.852;2024-02-04T20:46:06;17.33;;;6.95;;
42146;SDS011;27815;43.410;11.852;2024-02-04T20:50:13;13.43;;;7.50;;
42146;SDS011;27815;43.410;11.852;2024-02-04T20:54:17;12.38;;;7.45;;
42146;SDS011;27815;43.410;11.852;2024-02-04T20:58:27;10.60;;;5.82;;
42146;SDS011;27815;43.410;11.852;2024-02-04T21:02:34;9.80;;;5.30;;
42146;SDS011;27815;43.410;11.852;2024-02-04T21:11:50;10.18;;;5.25;;
42146;SDS011;27815;43.410;11.852;2024-02-04T21:16:25;10.38;;;5.38;;
42146;SDS011;27815;43.410;11.852;2024-02-04T21:20:28;9.73;;;4.63;;
42146;SDS011;27815;43.410;11.852;2024-02-04T21:24:31;8.95;;;4.35;;
42146;SDS011;27815;43.410;11.852;2024-02-04T21:28:37;10.50;;;5.20;;
42146;SDS011;27815;43.410;11.852;2024-02-04T21:32:42;11.45;;;5.13;;
42146;SDS011;27815;43.410;11.852;2024-02-04T21:36:51;11.02;;;4.72;;
42146;SDS011;27815;43.410;11.852;2024-02-04T21:40:54;9.68;;;4.60;;
42146;SDS011;27815;43.410;11.852;2024-02-04T21:44:57;8.35;;;4.45;;
42146;SDS011;27815;43.410;11.852;2024-02-04T21:49:02;11.05;;;4.30;;
42146;SDS011;27815;43.410;11.852;2024-02-04T21:53:08;13.38;;;5.05;;
42146;SDS011;27815;43.410;11.852;2024-02-04T21:57:11;15.20;;;5.70;;
42146;SDS011;27815;43.410;11.852;2024-02-04T22:01:14;16.17;;;8.88;;
42146;SDS011;27815;43.410;11.852;2024-02-04T22:05:18;14.32;;;8.45;;
42146;SDS011;27815;43.410;11.852;2024-02-04T22:09:21;18.40;;;10.70;;
42146;SDS011;27815;43.410;11.852;2024-02-04T22:13:25;12.05;;;5.70;;
42146;SDS011;27815;43.410;11.852;2024-02-04T22:17:29;12.82;;;6.22;;
42146;SDS011;27815;43.410;11.852;2024-02-04T22:21:32;12.60;;;6.25;;
42146;SDS011;27815;43.410;11.852;2024-02-04T22:25:37;10.60;;;6.00;;
42146;SDS011;27815;43.410;11.852;2024-02-04T22:29:39;9.40;;;6.10;;
42146;SDS011;27815;43.410;11.852;2024-02-04T22:33:42;9.15;;;5.60;;
42146;SDS011;27815;43.410;11.852;2024-02-04T22:37:45;12.02;;;5.78;;
42146;SDS011;27815;43.410;11.852;2024-02-04T22:41:48;9.20;;;5.63;;
42146;SDS011;27815;43.410;11.852;2024-02-04T22:45:51;9.68;;;5.93;;
42146;SDS011;27815;43.410;11.852;2024-02-04T22:49:55;13.80;;;8.50;;
42146;SDS011;27815;43.410;11.852;2024-02-04T22:53:58;11.10;;;5.55;;
42146;SDS011;27815;43.410;11.852;2024-02-04T22:58:01;10.68;;;6.15;;
42146;SDS011;27815;43.410;11.852;2024-02-04T23:02:04;12.57;;;5.32;;
42146;SDS011;27815;43.410;11.852;2024-02-04T23:06:09;9.05;;;5.20;;
42146;SDS011;27815;43.410;11.852;2024-02-04T23:10:12;13.73;;;5.30;;
42146;SDS011;27815;43.410;11.852;2024-02-04T23:14:15;10.60;;;5.28;;
42146;SDS011;27815;43.410;11.852;2024-02-04T23:18:18;11.70;;;4.93;;
42146;SDS011;27815;43.410;11.852;2024-02-04T23:22:21;9.00;;;5.18;;
42146;SDS011;27815;43.410;11.852;2024-02-04T23:26:24;12.75;;;6.25;;
42146;SDS011;27815;43.410;11.852;2024-02-04T23:30:27;10.30;;;5.90;;
42146;SDS011;27815;43.410;11.852;2024-02-04T23:34:30;15.07;;;7.35;;
42146;SDS011;27815;43.410;11.852;2024-02-04T23:38:33;22.00;;;11.38;;
42146;SDS011;27815;43.410;11.852;2024-02-04T23:42:37;22.63;;;13.85;;
42146;SDS011;27815;43.410;11.852;2024-02-04T23:46:40;25.55;;;14.73;;
42146;SDS011;27815;43.410;11.852;2024-02-04T23:50:43;17.13;;;10.50;;
42146;SDS011;27815;43.410;11.852;2024-02-04T23:55:06;19.42;;;11.52;;
42146;SDS011;27815;43.410;11.852;2024-02-04T23:59:11;20.02;;;10.70;;
